sensor_id;sensor_type;location;lat;lon;timestamp;P1;durP1;ratioP1;P2;durP2;ratioP2
45049;SDS011;61798;48.048;-1.928;2023-04-29T00:00:44;5.57;;;3.22;;
45049;SDS011;61798;48.048;-1.928;2023-04-29T00:02:49;5.68;;;3.15;;
45049;SDS011;61798;48.048;-1.928;2023-04-29T00:04:57;5.80;;;3.42;;
45049;SDS011;61798;48.048;-1.928;2023-04-29T00:07:03;6.65;;;3.45;;
45049;SDS011;61798;48.048;-1.928;2023-04-29T00:09:10;7.18;;;3.38;;
45049;SDS011;61798;48.048;-1.928;2023-04-29T00:11:16;7.90;;;3.08;;
45049;SDS011;61798;48.048;-1.928;2023-04-29T00:13:22;3.95;;;2.75;;
45049;SDS011;61798;48.048;-1.928;2023-04-29T00:15:29;3.85;;;2.58;;
45049;SDS011;61798;48.048;-1.928;2023-04-29T00:17:35;4.43;;;2.78;;
45049;SDS011;61798;48.048;-1.928;2023-04-29T00:19:42;4.00;;;2.75;;
45049;SDS011;61798;48.048;-1.928;2023-04-29T00:21:48;4.57;;;2.50;;
45049;SDS011;61798;48.048;-1.928;2023-04-29T00:23:55;3.95;;;2.45;;
45049;SDS011;61798;48.048;-1.928;2023-04-29T00:26:01;3.30;;;2.25;;
45049;SDS011;61798;48.048;-1.928;2023-04-29T00:28:07;3.58;;;2.38;;
45049;SDS011;61798;48.048;-1.928;2023-04-29T00:30:14;3.20;;;2.08;;
45049;SDS011;61798;48.048;-1.928;2023-04-29T00:32:20;4.43;;;2.30;;
45049;SDS011;61798;48.048;-1.928;2023-04-29T00:34:27;3.80;;;2.25;;
45049;SDS011;61798;48.048;-1.928;2023-04-29T00:36:33;3.15;;;2.00;;
45049;SDS011;61798;48.048;-1.928;2023-04-29T00:38:40;4.90;;;1.40;;
45049;SDS011;61798;48.048;-1.928;2023-04-29T00:40:46;2.63;;;1.63;;
45049;SDS011;61798;48.048;-1.928;2023-04-29T00:42:53;3.03;;;1.90;;
45049;SDS011;61798;48.048;-1.928;2023-04-29T00:45:00;3.50;;;1.70;;
45049;SDS011;61798;48.048;-1.928;2023-04-29T00:47:06;2.25;;;1.67;;
45049;SDS011;61798;48.048;-1.928;2023-04-29T00:49:17;1.60;;;1.42;;
45049;SDS011;61798;48.048;-1.928;2023-04-29T00:51:23;1.83;;;1.42;;
45049;SDS011;61798;48.048;-1.928;2023-04-29T00:53:29;2.05;;;1.17;;
45049;SDS011;61798;48.048;-1.928;2023-04-29T00:55:35;2.35;;;1.58;;
45049;SDS011;61798;48.048;-1.928;2023-04-29T00:57:44;3.97;;;1.52;;
45049;SDS011;61798;48.048;-1.928;2023-04-29T00:59:52;2.92;;;1.55;;
45049;SDS011;61798;48.048;-1.928;2023-04-29T01:02:00;4.35;;;1.52;;
45049;SDS011;61798;48.048;-1.928;2023-04-29T01:04:07;2.22;;;1.48;;
45049;SDS011;61798;48.048;-1.928;2023-04-29T01:08:43;1.85;;;1.42;;
45049;SDS011;61798;48.048;-1.928;2023-04-29T01:11:15;2.03;;;1.30;;
45049;SDS011;61798;48.048;-1.928;2023-04-29T01:13:35;1.77;;;1.38;;
45049;SDS011;61798;48.048;-1.928;2023-04-29T01:16:00;1.70;;;1.33;;
45049;SDS011;61798;48.048;-1.928;2023-04-29T01:18:19;1.70;;;1.10;;
45049;SDS011;61798;48.048;-1.928;2023-04-29T01:20:30;2.28;;;1.60;;
45049;SDS011;61798;48.048;-1.928;2023-04-29T01:22:38;2.17;;;1.38;;
45049;SDS011;61798;48.048;-1.928;2023-04-29T01:24:43;1.70;;;1.10;;
45049;SDS011;61798;48.048;-1.928;2023-04-29T01:26:56;2.40;;;1.42;;
45049;SDS011;61798;48.048;-1.928;2023-04-29T01:31:57;3.22;;;1.45;;
45049;SDS011;61798;48.048;-1.928;2023-04-29T01:34:18;3.13;;;1.65;;
45049;SDS011;61798;48.048;-1.928;2023-04-29T01:36:52;3.50;;;1.17;;
45049;SDS011;61798;48.048;-1.928;2023-04-29T01:41:55;2.80;;;1.05;;
45049;SDS011;61798;48.048;-1.928;2023-04-29T01:44:06;1.65;;;1.13;;
45049;SDS011;61798;48.048;-1.928;2023-04-29T01:46:14;1.80;;;1.17;;
45049;SDS011;61798;48.048;-1.928;2023-04-29T01:48:23;1.52;;;1.27;;
45049;SDS011;61798;48.048;-1.928;2023-04-29T01:50:29;1.10;;;0.93;;
45049;SDS011;61798;48.048;-1.928;2023-04-29T01:52:35;2.03;;;1.00;;
45049;SDS011;61798;48.048;-1.928;2023-04-29T01:54:41;1.65;;;1.02;;
45049;SDS011;61798;48.048;-1.928;2023-04-29T01:56:47;6.05;;;1.00;;
45049;SDS011;61798;48.048;-1.928;2023-04-29T01:58:54;1.30;;;0.98;;
45049;SDS011;61798;48.048;-1.928;2023-04-29T02:01:00;0.80;;;0.80;;
45049;SDS011;61798;48.048;-1.928;2023-04-29T02:03:07;0.80;;;0.80;;
45049;SDS011;61798;48.048;-1.928;2023-04-29T02:05:13;1.13;;;0.88;;
45049;SDS011;61798;48.048;-1.928;2023-04-29T02:07:20;1.10;;;0.88;;
45049;SDS011;61798;48.048;-1.928;2023-04-29T02:09:26;1.15;;;0.90;;
45049;SDS011;61798;48.048;-1.928;2023-04-29T02:11:32;1.40;;;1.20;;
45049;SDS011;61798;48.048;-1.928;2023-04-29T02:13:39;1.63;;;1.20;;
45049;SDS011;61798;48.048;-1.928;2023-04-29T02:15:45;1.83;;;1.10;;
45049;SDS011;61798;48.048;-1.928;2023-04-29T02:17:51;2.63;;;1.15;;
45049;SDS011;61798;48.048;-1.928;2023-04-29T02:19:59;2.08;;;1.00;;
45049;SDS011;61798;48.048;-1.928;2023-04-29T02:22:05;2.08;;;1.38;;
45049;SDS011;61798;48.048;-1.928;2023-04-29T02:24:12;3.33;;;1.30;;
45049;SDS011;61798;48.048;-1.928;2023-04-29T02:26:18;2.65;;;1.70;;
45049;SDS011;61798;48.048;-1.928;2023-04-29T02:28:26;1.70;;;1.20;;
45049;SDS011;61798;48.048;-1.928;2023-04-29T02:30:32;2.05;;;1.65;;
45049;SDS011;61798;48.048;-1.928;2023-04-29T02:32:38;2.15;;;1.60;;
45049;SDS011;61798;48.048;-1.928;2023-04-29T02:34:45;1.85;;;1.55;;
45049;SDS011;61798;48.048;-1.928;2023-04-29T02:36:51;2.70;;;1.67;;
45049;SDS011;61798;48.048;-1.928;2023-04-29T02:38:59;3.47;;;1.90;;
45049;SDS011;61798;48.048;-1.928;2023-04-29T02:41:05;2.83;;;1.75;;
45049;SDS011;61798;48.048;-1.928;2023-04-29T02:43:12;3.60;;;1.95;;
45049;SDS011;61798;48.048;-1.928;2023-04-29T02:45:18;3.40;;;1.88;;
45049;SDS011;61798;48.048;-1.928;2023-04-29T02:47:24;3.53;;;2.00;;
45049;SDS011;61798;48.048;-1.928;2023-04-29T02:49:31;3.75;;;2.00;;
45049;SDS011;61798;48.048;-1.928;2023-04-29T02:51:37;3.42;;;2.10;;
45049;SDS011;61798;48.048;-1.928;2023-04-29T02:53:44;3.35;;;2.25;;
45049;SDS011;61798;48.048;-1.928;2023-04-29T02:55:50;2.67;;;1.95;;
45049;SDS011;61798;48.048;-1.928;2023-04-29T02:57:55;4.53;;;1.88;;
45049;SDS011;61798;48.048;-1.928;2023-04-29T03:00:03;3.05;;;2.10;;
45049;SDS011;61798;48.048;-1.928;2023-04-29T03:02:10;3.08;;;1.92;;
45049;SDS011;61798;48.048;-1.928;2023-04-29T03:04:17;4.45;;;2.55;;
45049;SDS011;61798;48.048;-1.928;2023-04-29T03:06:23;4.25;;;2.40;;
45049;SDS011;61798;48.048;-1.928;2023-04-29T03:08:29;3.50;;;2.30;;
45049;SDS011;61798;48.048;-1.928;2023-04-29T03:10:35;3.67;;;2.25;;
45049;SDS011;61798;48.048;-1.928;2023-04-29T03:12:41;3.58;;;2.30;;
45049;SDS011;61798;48.048;-1.928;2023-04-29T03:14:48;5.72;;;3.10;;
45049;SDS011;61798;48.048;-1.928;2023-04-29T03:16:56;4.25;;;2.63;;
45049;SDS011;61798;48.048;-1.928;2023-04-29T03:19:05;4.47;;;3.10;;
45049;SDS011;61798;48.048;-1.928;2023-04-29T03:21:11;4.68;;;2.47;;
45049;SDS011;61798;48.048;-1.928;2023-04-29T03:23:18;4.28;;;2.67;;
45049;SDS011;61798;48.048;-1.928;2023-04-29T03:25:24;3.83;;;2.33;;
45049;SDS011;61798;48.048;-1.928;2023-04-29T03:27:30;3.47;;;2.35;;
45049;SDS011;61798;48.048;-1.928;2023-04-29T03:29:37;3.55;;;2.42;;
45049;SDS011;61798;48.048;-1.928;2023-04-29T03:31:43;4.05;;;2.70;;
45049;SDS011;61798;48.048;-1.928;2023-04-29T03:33:50;3.85;;;2.53;;
45049;SDS011;61798;48.048;-1.928;2023-04-29T03:35:57;4.20;;;2.58;;
45049;SDS011;61798;48.048;-1.928;2023-04-29T03:38:03;4.10;;;2.60;;
45049;SDS011;61798;48.048;-1.928;2023-04-29T03:40:11;3.22;;;2.13;;
45049;SDS011;61798;48.048;-1.928;2023-04-29T03:42:17;3.45;;;2.22;;
45049;SDS011;61798;48.048;-1.928;2023-04-29T03:44:25;4.40;;;2.30;;
45049;SDS011;61798;48.048;-1.928;2023-04-29T03:46:31;3.67;;;2.42;;
45049;SDS011;61798;48.048;-1.928;2023-04-29T03:48:38;3.85;;;2.42;;
45049;SDS011;61798;48.048;-1.928;2023-04-29T03:50:44;6.35;;;2.58;;
45049;SDS011;61798;48.048;-1.928;2023-04-29T03:52:50;4.50;;;2.47;;
45049;SDS011;61798;48.048;-1.928;2023-04-29T03:54:57;2.95;;;2.13;;
45049;SDS011;61798;48.048;-1.928;2023-04-29T03:57:03;3.95;;;2.38;;
45049;SDS011;61798;48.048;-1.928;2023-04-29T03:59:10;3.42;;;1.95;;
45049;SDS011;61798;48.048;-1.928;2023-04-29T04:01:16;4.22;;;2.50;;
45049;SDS011;61798;48.048;-1.928;2023-04-29T04:03:23;2.78;;;2.00;;
45049;SDS011;61798;48.048;-1.928;2023-04-29T04:05:30;4.70;;;2.15;;
45049;SDS011;61798;48.048;-1.928;2023-04-29T04:07:36;2.75;;;1.85;;
45049;SDS011;61798;48.048;-1.928;2023-04-29T04:09:43;5.20;;;2.25;;
45049;SDS011;61798;48.048;-1.928;2023-04-29T04:11:49;4.78;;;2.90;;
45049;SDS011;61798;48.048;-1.928;2023-04-29T04:13:56;5.85;;;2.78;;
45049;SDS011;61798;48.048;-1.928;2023-04-29T04:16:02;3.33;;;2.22;;
45049;SDS011;61798;48.048;-1.928;2023-04-29T04:18:09;3.15;;;2.28;;
45049;SDS011;61798;48.048;-1.928;2023-04-29T04:20:16;4.07;;;2.63;;
45049;SDS011;61798;48.048;-1.928;2023-04-29T04:22:22;3.63;;;2.40;;
45049;SDS011;61798;48.048;-1.928;2023-04-29T04:24:28;4.82;;;2.22;;
45049;SDS011;61798;48.048;-1.928;2023-04-29T04:26:34;4.82;;;2.28;;
45049;SDS011;61798;48.048;-1.928;2023-04-29T04:28:41;3.13;;;1.98;;
45049;SDS011;61798;48.048;-1.928;2023-04-29T04:30:47;3.50;;;2.10;;
45049;SDS011;61798;48.048;-1.928;2023-04-29T04:32:54;5.50;;;2.80;;
45049;SDS011;61798;48.048;-1.928;2023-04-29T04:35:00;3.35;;;2.13;;
45049;SDS011;61798;48.048;-1.928;2023-04-29T04:37:05;4.50;;;2.10;;
45049;SDS011;61798;48.048;-1.928;2023-04-29T04:39:13;3.35;;;2.20;;
45049;SDS011;61798;48.048;-1.928;2023-04-29T04:41:19;3.30;;;2.00;;
45049;SDS011;61798;48.048;-1.928;2023-04-29T04:43:26;2.92;;;2.15;;
45049;SDS011;61798;48.048;-1.928;2023-04-29T04:45:32;2.58;;;1.98;;
45049;SDS011;61798;48.048;-1.928;2023-04-29T04:47:39;3.42;;;2.22;;
45049;SDS011;61798;48.048;-1.928;2023-04-29T04:49:46;3.55;;;2.00;;
45049;SDS011;61798;48.048;-1.928;2023-04-29T04:51:54;4.57;;;2.35;;
45049;SDS011;61798;48.048;-1.928;2023-04-29T04:54:01;4.55;;;2.28;;
45049;SDS011;61798;48.048;-1.928;2023-04-29T04:56:07;4.10;;;2.40;;
45049;SDS011;61798;48.048;-1.928;2023-04-29T04:58:13;3.33;;;1.92;;
45049;SDS011;61798;48.048;-1.928;2023-04-29T05:00:20;6.75;;;2.30;;
45049;SDS011;61798;48.048;-1.928;2023-04-29T05:02:26;3.47;;;2.15;;
45049;SDS011;61798;48.048;-1.928;2023-04-29T05:04:31;4.13;;;2.33;;
45049;SDS011;61798;48.048;-1.928;2023-04-29T05:06:38;4.25;;;2.45;;
45049;SDS011;61798;48.048;-1.928;2023-04-29T05:08:44;3.83;;;2.38;;
45049;SDS011;61798;48.048;-1.928;2023-04-29T05:10:51;3.42;;;2.28;;
45049;SDS011;61798;48.048;-1.928;2023-04-29T05:12:57;4.32;;;2.83;;
45049;SDS011;61798;48.048;-1.928;2023-04-29T05:15:03;3.95;;;2.70;;
45049;SDS011;61798;48.048;-1.928;2023-04-29T05:17:09;5.63;;;3.30;;
45049;SDS011;61798;48.048;-1.928;2023-04-29T05:19:17;6.60;;;3.42;;
45049;SDS011;61798;48.048;-1.928;2023-04-29T05:21:23;5.65;;;3.00;;
45049;SDS011;61798;48.048;-1.928;2023-04-29T05:23:29;3.92;;;2.90;;
45049;SDS011;61798;48.048;-1.928;2023-04-29T05:25:35;3.72;;;2.47;;
45049;SDS011;61798;48.048;-1.928;2023-04-29T05:27:42;5.18;;;3.00;;
45049;SDS011;61798;48.048;-1.928;2023-04-29T05:29:48;5.20;;;3.15;;
45049;SDS011;61798;48.048;-1.928;2023-04-29T05:31:54;4.80;;;3.00;;
45049;SDS011;61798;48.048;-1.928;2023-04-29T05:34:02;4.45;;;2.83;;
45049;SDS011;61798;48.048;-1.928;2023-04-29T05:36:08;4.80;;;2.92;;
45049;SDS011;61798;48.048;-1.928;2023-04-29T05:38:15;6.07;;;3.28;;
45049;SDS011;61798;48.048;-1.928;2023-04-29T05:40:22;5.65;;;3.20;;
45049;SDS011;61798;48.048;-1.928;2023-04-29T05:42:29;6.57;;;3.20;;
45049;SDS011;61798;48.048;-1.928;2023-04-29T05:44:35;4.40;;;2.90;;
45049;SDS011;61798;48.048;-1.928;2023-04-29T05:46:41;6.07;;;3.20;;
45049;SDS011;61798;48.048;-1.928;2023-04-29T05:48:49;6.05;;;2.97;;
45049;SDS011;61798;48.048;-1.928;2023-04-29T05:50:55;4.75;;;3.20;;
45049;SDS011;61798;48.048;-1.928;2023-04-29T05:53:02;6.78;;;4.78;;
45049;SDS011;61798;48.048;-1.928;2023-04-29T05:55:09;5.25;;;3.58;;
45049;SDS011;61798;48.048;-1.928;2023-04-29T05:57:15;5.10;;;3.60;;
45049;SDS011;61798;48.048;-1.928;2023-04-29T05:59:22;7.20;;;3.35;;
45049;SDS011;61798;48.048;-1.928;2023-04-29T06:01:28;7.45;;;3.80;;
45049;SDS011;61798;48.048;-1.928;2023-04-29T06:03:36;6.22;;;3.38;;
45049;SDS011;61798;48.048;-1.928;2023-04-29T06:05:43;5.47;;;3.40;;
45049;SDS011;61798;48.048;-1.928;2023-04-29T06:07:49;5.55;;;3.47;;
45049;SDS011;61798;48.048;-1.928;2023-04-29T06:09:56;6.13;;;3.70;;
45049;SDS011;61798;48.048;-1.928;2023-04-29T06:12:03;7.25;;;3.92;;
45049;SDS011;61798;48.048;-1.928;2023-04-29T06:14:09;6.95;;;3.88;;
45049;SDS011;61798;48.048;-1.928;2023-04-29T06:16:15;7.47;;;4.18;;
45049;SDS011;61798;48.048;-1.928;2023-04-29T06:18:22;6.82;;;4.32;;
45049;SDS011;61798;48.048;-1.928;2023-04-29T06:20:28;8.63;;;4.30;;
45049;SDS011;61798;48.048;-1.928;2023-04-29T06:22:34;7.88;;;4.40;;
45049;SDS011;61798;48.048;-1.928;2023-04-29T06:24:41;8.15;;;4.85;;
45049;SDS011;61798;48.048;-1.928;2023-04-29T06:26:47;7.18;;;4.55;;
45049;SDS011;61798;48.048;-1.928;2023-04-29T06:28:55;7.30;;;4.57;;
45049;SDS011;61798;48.048;-1.928;2023-04-29T06:31:01;8.05;;;4.95;;
45049;SDS011;61798;48.048;-1.928;2023-04-29T06:33:09;7.07;;;4.22;;
45049;SDS011;61798;48.048;-1.928;2023-04-29T06:35:15;9.68;;;3.92;;
45049;SDS011;61798;48.048;-1.928;2023-04-29T06:37:22;8.93;;;4.60;;
45049;SDS011;61798;48.048;-1.928;2023-04-29T06:39:32;7.75;;;4.53;;
45049;SDS011;61798;48.048;-1.928;2023-04-29T06:41:40;7.90;;;4.88;;
45049;SDS011;61798;48.048;-1.928;2023-04-29T06:43:46;7.18;;;4.50;;
45049;SDS011;61798;48.048;-1.928;2023-04-29T06:45:54;8.18;;;4.95;;
45049;SDS011;61798;48.048;-1.928;2023-04-29T06:48:06;8.02;;;4.55;;
45049;SDS011;61798;48.048;-1.928;2023-04-29T06:50:12;6.68;;;4.45;;
45049;SDS011;61798;48.048;-1.928;2023-04-29T06:52:19;9.15;;;4.53;;
45049;SDS011;61798;48.048;-1.928;2023-04-29T06:54:25;8.48;;;5.03;;
45049;SDS011;61798;48.048;-1.928;2023-04-29T06:56:34;10.75;;;5.22;;
45049;SDS011;61798;48.048;-1.928;2023-04-29T06:58:41;9.50;;;5.53;;
45049;SDS011;61798;48.048;-1.928;2023-04-29T07:00:49;8.18;;;5.45;;
45049;SDS011;61798;48.048;-1.928;2023-04-29T07:02:55;8.40;;;5.32;;
45049;SDS011;61798;48.048;-1.928;2023-04-29T07:05:02;9.20;;;5.22;;
45049;SDS011;61798;48.048;-1.928;2023-04-29T07:07:10;9.98;;;5.75;;
45049;SDS011;61798;48.048;-1.928;2023-04-29T07:09:18;11.13;;;5.95;;
45049;SDS011;61798;48.048;-1.928;2023-04-29T07:11:26;9.18;;;5.55;;
45049;SDS011;61798;48.048;-1.928;2023-04-29T07:13:33;10.32;;;6.10;;
45049;SDS011;61798;48.048;-1.928;2023-04-29T07:15:40;8.90;;;4.88;;
45049;SDS011;61798;48.048;-1.928;2023-04-29T07:17:48;10.77;;;5.70;;
45049;SDS011;61798;48.048;-1.928;2023-04-29T07:19:55;11.13;;;5.80;;
45049;SDS011;61798;48.048;-1.928;2023-04-29T07:22:03;11.25;;;5.50;;
45049;SDS011;61798;48.048;-1.928;2023-04-29T07:24:10;9.20;;;5.47;;
45049;SDS011;61798;48.048;-1.928;2023-04-29T07:26:17;8.73;;;5.57;;
45049;SDS011;61798;48.048;-1.928;2023-04-29T07:28:24;9.20;;;5.07;;
45049;SDS011;61798;48.048;-1.928;2023-04-29T07:30:31;8.63;;;5.35;;
45049;SDS011;61798;48.048;-1.928;2023-04-29T07:32:37;11.50;;;5.70;;
45049;SDS011;61798;48.048;-1.928;2023-04-29T07:34:44;9.60;;;5.78;;
45049;SDS011;61798;48.048;-1.928;2023-04-29T07:36:51;9.68;;;5.82;;
45049;SDS011;61798;48.048;-1.928;2023-04-29T07:38:58;8.60;;;4.90;;
45049;SDS011;61798;48.048;-1.928;2023-04-29T07:41:05;10.10;;;5.82;;
45049;SDS011;61798;48.048;-1.928;2023-04-29T07:43:12;8.25;;;5.50;;
45049;SDS011;61798;48.048;-1.928;2023-04-29T07:46:07;7.65;;;5.13;;
45049;SDS011;61798;48.048;-1.928;2023-04-29T07:49:02;8.23;;;5.18;;
45049;SDS011;61798;48.048;-1.928;2023-04-29T07:51:11;8.95;;;5.22;;
45049;SDS011;61798;48.048;-1.928;2023-04-29T07:53:18;8.27;;;5.50;;
45049;SDS011;61798;48.048;-1.928;2023-04-29T07:55:24;8.82;;;5.38;;
45049;SDS011;61798;48.048;-1.928;2023-04-29T07:57:31;7.85;;;5.07;;
45049;SDS011;61798;48.048;-1.928;2023-04-29T07:59:38;9.77;;;5.03;;
45049;SDS011;61798;48.048;-1.928;2023-04-29T08:01:44;11.00;;;6.18;;
45049;SDS011;61798;48.048;-1.928;2023-04-29T08:03:52;10.30;;;5.47;;
45049;SDS011;61798;48.048;-1.928;2023-04-29T08:06:02;10.57;;;5.78;;
45049;SDS011;61798;48.048;-1.928;2023-04-29T08:08:09;8.55;;;5.57;;
45049;SDS011;61798;48.048;-1.928;2023-04-29T08:10:16;9.90;;;6.20;;
45049;SDS011;61798;48.048;-1.928;2023-04-29T08:12:23;9.23;;;5.95;;
45049;SDS011;61798;48.048;-1.928;2023-04-29T08:14:30;13.48;;;6.63;;
45049;SDS011;61798;48.048;-1.928;2023-04-29T08:16:36;9.50;;;6.20;;
45049;SDS011;61798;48.048;-1.928;2023-04-29T08:18:43;12.95;;;7.20;;
45049;SDS011;61798;48.048;-1.928;2023-04-29T08:20:49;11.25;;;7.43;;
45049;SDS011;61798;48.048;-1.928;2023-04-29T08:22:57;10.82;;;6.13;;
45049;SDS011;61798;48.048;-1.928;2023-04-29T08:25:05;9.40;;;6.30;;
45049;SDS011;61798;48.048;-1.928;2023-04-29T08:27:11;11.00;;;6.95;;
45049;SDS011;61798;48.048;-1.928;2023-04-29T08:29:18;9.10;;;5.78;;
45049;SDS011;61798;48.048;-1.928;2023-04-29T08:31:25;8.93;;;5.68;;
45049;SDS011;61798;48.048;-1.928;2023-04-29T08:33:30;11.20;;;6.70;;
45049;SDS011;61798;48.048;-1.928;2023-04-29T08:35:37;11.73;;;6.35;;
45049;SDS011;61798;48.048;-1.928;2023-04-29T08:37:43;10.05;;;6.38;;
45049;SDS011;61798;48.048;-1.928;2023-04-29T08:39:50;10.65;;;6.82;;
45049;SDS011;61798;48.048;-1.928;2023-04-29T08:41:57;13.50;;;7.50;;
45049;SDS011;61798;48.048;-1.928;2023-04-29T08:44:05;9.35;;;6.07;;
45049;SDS011;61798;48.048;-1.928;2023-04-29T08:46:11;9.55;;;6.15;;
45049;SDS011;61798;48.048;-1.928;2023-04-29T08:48:17;11.68;;;7.50;;
45049;SDS011;61798;48.048;-1.928;2023-04-29T08:50:25;9.68;;;6.85;;
45049;SDS011;61798;48.048;-1.928;2023-04-29T08:52:33;14.38;;;7.78;;
45049;SDS011;61798;48.048;-1.928;2023-04-29T08:54:39;10.75;;;7.22;;
45049;SDS011;61798;48.048;-1.928;2023-04-29T08:56:45;13.98;;;9.25;;
45049;SDS011;61798;48.048;-1.928;2023-04-29T08:58:54;14.70;;;8.40;;
45049;SDS011;61798;48.048;-1.928;2023-04-29T09:01:05;11.68;;;7.85;;
45049;SDS011;61798;48.048;-1.928;2023-04-29T09:05:28;12.77;;;8.05;;
45049;SDS011;61798;48.048;-1.928;2023-04-29T09:07:35;10.00;;;6.93;;
45049;SDS011;61798;48.048;-1.928;2023-04-29T09:09:44;11.05;;;6.72;;
45049;SDS011;61798;48.048;-1.928;2023-04-29T09:11:51;10.50;;;6.65;;
45049;SDS011;61798;48.048;-1.928;2023-04-29T09:14:01;11.13;;;6.88;;
45049;SDS011;61798;48.048;-1.928;2023-04-29T09:16:11;12.80;;;7.88;;
45049;SDS011;61798;48.048;-1.928;2023-04-29T09:20:55;11.23;;;7.93;;
45049;SDS011;61798;48.048;-1.928;2023-04-29T09:23:03;10.35;;;6.75;;
45049;SDS011;61798;48.048;-1.928;2023-04-29T09:25:12;12.07;;;7.35;;
45049;SDS011;61798;48.048;-1.928;2023-04-29T09:27:26;12.80;;;7.75;;
45049;SDS011;61798;48.048;-1.928;2023-04-29T09:29:35;12.60;;;7.80;;
45049;SDS011;61798;48.048;-1.928;2023-04-29T09:31:44;12.70;;;6.65;;
45049;SDS011;61798;48.048;-1.928;2023-04-29T09:33:54;12.98;;;6.90;;
45049;SDS011;61798;48.048;-1.928;2023-04-29T09:36:03;13.50;;;7.05;;
45049;SDS011;61798;48.048;-1.928;2023-04-29T09:38:13;12.23;;;7.38;;
45049;SDS011;61798;48.048;-1.928;2023-04-29T09:40:31;13.07;;;7.30;;
45049;SDS011;61798;48.048;-1.928;2023-04-29T09:42:41;9.52;;;6.28;;
45049;SDS011;61798;48.048;-1.928;2023-04-29T09:44:48;10.02;;;6.38;;
45049;SDS011;61798;48.048;-1.928;2023-04-29T09:46:55;10.90;;;6.55;;
45049;SDS011;61798;48.048;-1.928;2023-04-29T09:49:20;21.98;;;7.60;;
45049;SDS011;61798;48.048;-1.928;2023-04-29T09:51:30;10.30;;;6.85;;
45049;SDS011;61798;48.048;-1.928;2023-04-29T09:53:40;14.82;;;7.57;;
45049;SDS011;61798;48.048;-1.928;2023-04-29T09:57:59;10.07;;;6.97;;
45049;SDS011;61798;48.048;-1.928;2023-04-29T10:00:05;11.15;;;7.13;;
45049;SDS011;61798;48.048;-1.928;2023-04-29T10:04:26;12.18;;;6.55;;
45049;SDS011;61798;48.048;-1.928;2023-04-29T10:06:32;10.45;;;6.35;;
45049;SDS011;61798;48.048;-1.928;2023-04-29T10:08:39;9.23;;;6.63;;
45049;SDS011;61798;48.048;-1.928;2023-04-29T10:10:46;10.93;;;6.35;;
45049;SDS011;61798;48.048;-1.928;2023-04-29T10:12:53;8.32;;;6.13;;
45049;SDS011;61798;48.048;-1.928;2023-04-29T10:17:36;11.75;;;6.95;;
45049;SDS011;61798;48.048;-1.928;2023-04-29T10:22:18;10.75;;;6.63;;
45049;SDS011;61798;48.048;-1.928;2023-04-29T10:24:33;8.00;;;5.65;;
45049;SDS011;61798;48.048;-1.928;2023-04-29T10:26:42;8.57;;;5.95;;
45049;SDS011;61798;48.048;-1.928;2023-04-29T10:28:50;10.00;;;6.88;;
45049;SDS011;61798;48.048;-1.928;2023-04-29T10:30:56;9.15;;;6.32;;
45049;SDS011;61798;48.048;-1.928;2023-04-29T10:33:05;8.20;;;5.60;;
45049;SDS011;61798;48.048;-1.928;2023-04-29T10:35:16;7.80;;;5.35;;
45049;SDS011;61798;48.048;-1.928;2023-04-29T10:37:27;7.95;;;5.35;;
45049;SDS011;61798;48.048;-1.928;2023-04-29T10:39:46;7.75;;;5.57;;
45049;SDS011;61798;48.048;-1.928;2023-04-29T10:41:57;8.20;;;5.78;;
45049;SDS011;61798;48.048;-1.928;2023-04-29T10:44:04;7.75;;;5.35;;
45049;SDS011;61798;48.048;-1.928;2023-04-29T10:48:26;8.13;;;5.57;;
45049;SDS011;61798;48.048;-1.928;2023-04-29T10:50:33;9.32;;;5.55;;
45049;SDS011;61798;48.048;-1.928;2023-04-29T10:52:53;9.30;;;6.13;;
45049;SDS011;61798;48.048;-1.928;2023-04-29T10:55:04;9.43;;;6.63;;
45049;SDS011;61798;48.048;-1.928;2023-04-29T10:57:19;8.13;;;5.90;;
45049;SDS011;61798;48.048;-1.928;2023-04-29T11:01:48;6.97;;;5.03;;
45049;SDS011;61798;48.048;-1.928;2023-04-29T11:04:10;10.05;;;5.47;;
45049;SDS011;61798;48.048;-1.928;2023-04-29T11:06:19;8.18;;;5.32;;
45049;SDS011;61798;48.048;-1.928;2023-04-29T11:08:26;7.70;;;5.35;;
45049;SDS011;61798;48.048;-1.928;2023-04-29T11:10:40;8.27;;;5.97;;
45049;SDS011;61798;48.048;-1.928;2023-04-29T11:13:19;6.18;;;5.03;;
45049;SDS011;61798;48.048;-1.928;2023-04-29T11:15:31;7.75;;;5.88;;
45049;SDS011;61798;48.048;-1.928;2023-04-29T11:17:39;8.35;;;5.45;;
45049;SDS011;61798;48.048;-1.928;2023-04-29T11:19:46;8.70;;;5.75;;
45049;SDS011;61798;48.048;-1.928;2023-04-29T11:24:30;8.18;;;5.32;;
45049;SDS011;61798;48.048;-1.928;2023-04-29T11:26:42;6.13;;;4.85;;
45049;SDS011;61798;48.048;-1.928;2023-04-29T11:28:50;7.57;;;5.15;;
45049;SDS011;61798;48.048;-1.928;2023-04-29T11:30:58;6.70;;;5.10;;
45049;SDS011;61798;48.048;-1.928;2023-04-29T11:33:07;7.28;;;5.07;;
45049;SDS011;61798;48.048;-1.928;2023-04-29T11:35:16;9.18;;;5.25;;
45049;SDS011;61798;48.048;-1.928;2023-04-29T11:37:26;6.78;;;4.93;;
45049;SDS011;61798;48.048;-1.928;2023-04-29T11:39:36;8.38;;;5.72;;
45049;SDS011;61798;48.048;-1.928;2023-04-29T11:41:43;7.65;;;5.40;;
45049;SDS011;61798;48.048;-1.928;2023-04-29T11:43:57;6.18;;;5.07;;
45049;SDS011;61798;48.048;-1.928;2023-04-29T11:46:14;6.90;;;4.95;;
45049;SDS011;61798;48.048;-1.928;2023-04-29T11:48:25;7.50;;;5.25;;
45049;SDS011;61798;48.048;-1.928;2023-04-29T11:50:31;6.72;;;4.88;;
45049;SDS011;61798;48.048;-1.928;2023-04-29T11:52:39;7.25;;;5.70;;
45049;SDS011;61798;48.048;-1.928;2023-04-29T11:54:47;6.85;;;5.55;;
45049;SDS011;61798;48.048;-1.928;2023-04-29T11:56:54;8.85;;;6.05;;
45049;SDS011;61798;48.048;-1.928;2023-04-29T11:59:02;7.15;;;5.40;;
45049;SDS011;61798;48.048;-1.928;2023-04-29T12:01:13;7.82;;;5.88;;
45049;SDS011;61798;48.048;-1.928;2023-04-29T12:03:19;8.65;;;5.22;;
45049;SDS011;61798;48.048;-1.928;2023-04-29T12:05:26;6.95;;;5.30;;
45049;SDS011;61798;48.048;-1.928;2023-04-29T12:07:35;7.07;;;5.30;;
45049;SDS011;61798;48.048;-1.928;2023-04-29T12:09:45;11.63;;;6.55;;
45049;SDS011;61798;48.048;-1.928;2023-04-29T12:11:51;7.20;;;5.80;;
45049;SDS011;61798;48.048;-1.928;2023-04-29T12:13:57;8.45;;;5.15;;
45049;SDS011;61798;48.048;-1.928;2023-04-29T12:16:06;6.00;;;4.72;;
45049;SDS011;61798;48.048;-1.928;2023-04-29T12:18:14;6.75;;;5.13;;
45049;SDS011;61798;48.048;-1.928;2023-04-29T12:20:22;7.10;;;5.28;;
45049;SDS011;61798;48.048;-1.928;2023-04-29T12:22:31;6.07;;;5.25;;
45049;SDS011;61798;48.048;-1.928;2023-04-29T12:24:39;9.65;;;5.25;;
45049;SDS011;61798;48.048;-1.928;2023-04-29T12:26:45;5.70;;;4.53;;
45049;SDS011;61798;48.048;-1.928;2023-04-29T12:28:52;6.53;;;4.88;;
45049;SDS011;61798;48.048;-1.928;2023-04-29T12:31:01;6.32;;;5.03;;
45049;SDS011;61798;48.048;-1.928;2023-04-29T12:33:09;5.72;;;4.35;;
45049;SDS011;61798;48.048;-1.928;2023-04-29T12:35:20;6.65;;;5.18;;
45049;SDS011;61798;48.048;-1.928;2023-04-29T12:37:26;6.18;;;4.75;;
45049;SDS011;61798;48.048;-1.928;2023-04-29T12:39:33;6.65;;;4.53;;
45049;SDS011;61798;48.048;-1.928;2023-04-29T12:41:40;5.55;;;4.38;;
45049;SDS011;61798;48.048;-1.928;2023-04-29T12:43:48;5.55;;;3.95;;
45049;SDS011;61798;48.048;-1.928;2023-04-29T12:46:07;6.30;;;4.50;;
45049;SDS011;61798;48.048;-1.928;2023-04-29T12:48:15;7.35;;;4.82;;
45049;SDS011;61798;48.048;-1.928;2023-04-29T12:50:31;5.93;;;4.32;;
45049;SDS011;61798;48.048;-1.928;2023-04-29T12:52:39;5.15;;;4.22;;
45049;SDS011;61798;48.048;-1.928;2023-04-29T12:54:46;6.22;;;5.00;;
45049;SDS011;61798;48.048;-1.928;2023-04-29T12:56:52;6.30;;;4.50;;
45049;SDS011;61798;48.048;-1.928;2023-04-29T12:59:05;5.38;;;4.32;;
45049;SDS011;61798;48.048;-1.928;2023-04-29T13:01:14;9.82;;;4.55;;
45049;SDS011;61798;48.048;-1.928;2023-04-29T13:03:22;5.55;;;4.32;;
45049;SDS011;61798;48.048;-1.928;2023-04-29T13:05:28;5.88;;;4.68;;
45049;SDS011;61798;48.048;-1.928;2023-04-29T13:07:33;8.95;;;4.60;;
45049;SDS011;61798;48.048;-1.928;2023-04-29T13:09:40;8.07;;;4.57;;